Notice: iconv(): Detected an illegal character in input string in /home/meteolat/www/weather28/wsLangFunctions.php on line 115

Notice: iconv(): Detected an illegal character in input string in /home/meteolat/www/weather28/wsLangFunctions.php on line 115
Météorologique de l'aéroport - Météo La Turballe

Il s'agit d'un problème de communication. Allez directement sur le site Meteoalarm : www.meteoalarm.eu et vérifier les avertissements météorologiques..


Visitez nos sites météorologiques autres:

Template documentation
and downloads

And another site



Rapports METAR proximité

   
EHVK - Volkel Rnlafb, Netherlands
Distance: SO 18 km
Mise à jour: 28-01-2022 02:55
Nuageux  
Nuageux  
   Vent: ONO 13 km/h
Vent: ONO 13 km/h
Température: 5°C
éolien: 2°C
Point de rosée: 2°C
Humidité: 81%
Baromètre: 1030 hPa
Nuageux: Nuageux
visibilité: More than 10 km
Détails des nuages: Nuageux 18000 ft
EHVK 280155Z AUTO 29007KT 250V320 9999 OVC180 05/02 Q1030 BLU
EDLV - Niederrhein, Germany
Distance: SE 25 km
Mise à jour: 27-01-2022 23:50
PAS actuel
Claires  
Claires  
   Vent: Ouest 14.8 km/h
Vent: Ouest 14.8 km/h
Température: 5°C
éolien: 2°C
Point de rosée: 3°C
Humidité: 87%
Baromètre: 1028 hPa
visibilité: More than 10 km
Détails des nuages: Claires
EDLV 272250Z 28008KT CAVOK 05/03 Q1028
EHDL - Deelen Rnlafb, Netherlands
Distance: N 35 km
Mise à jour: 28-01-2022 02:55
Peu de nuages  
Peu de nuages  
   Vent: ONO 16.7 km/h
Vent: ONO 16.7 km/h
Température: 4°C
éolien: 0°C
Point de rosée: 2°C
Humidité: 87%
Baromètre: 1029 hPa
Nuageux: Peu de nuages
visibilité: More than 10 km
Détails des nuages: Peu de nuages 21000 ft
EHDL 280155Z AUTO 29009KT 240V360 9999 FEW210 04/02 Q1029 BLU
EHEH - Eindhoven Rnlafb, Netherlands
Distance: SO 48 km
Mise à jour: 28-01-2022 02:55
Nuageux  
Nuageux  
   Vent: Ouest 13 km/h
Vent: Ouest 13 km/h
Température: 4°C
éolien: 1°C
Point de rosée: 2°C
Humidité: 87%
Baromètre: 1031 hPa
Nuageux: Nuageux
visibilité: More than 10 km
Détails des nuages: Nuageux 18000 ft
EHEH 280155Z AUTO 26007KT 230V300 9999 OVC180 04/02 Q1031 BLU
EHGR - Gilze-Rijen Rnla, Netherlands
Distance: OSO 70 km
Mise à jour: 28-01-2022 02:55
Nuageux  
Nuageux  
   Vent: Ouest 9.3 km/h
Vent: Ouest 9.3 km/h
Température: 5°C
éolien: 3°C
Point de rosée: 2°C
Humidité: 81%
Baromètre: 1031 hPa
Nuageux: Nuageux
visibilité: More than 10 km
Détails des nuages: Nuageux 17000 ft
EHGR 280155Z AUTO 26005KT 9999 OVC170 05/02 Q1031 BLU
EBBL - Kleine-Brogel(Ba, Belgium
Distance: SSO 71 km
Mise à jour: 28-01-2022 02:55
Nuageux  
Nuageux  
   Vent: OSO 11.1 km/h
Vent: OSO 11.1 km/h
Température: 4°C
éolien: 1°C
Point de rosée: 2°C
Humidité: 87%
Baromètre: 1031 hPa
Nuageux: Nuageux
visibilité: More than 10 km
Détails des nuages: Nuageux 21000 ft
EBBL 280155Z AUTO 25006KT 9999 BKN210/// 04/02 Q1031 BLU

Script développé par  Saratoga-weather.org Adapté pour le modèle par  Weerstation Leuven

Équipement que nous utilisons:

Station de Météo
Davis VUE

Davis VUE